YXGY weather

Archery Park Helipad
Gympie, Queensland, Australia

Public forecast

Using degrees Celsius for public forecast. Weather courtesy of forecast.io.

METAR (pilot weather report)

Closest report is Kingaroy Airport, 49.6 nm (91.9 km) WSW. Retrieved 2019/04/20 10:00 UTC (12 minutes ago):

YKRY 201000Z AUTO 12008KT 9999 -SHRA OVC010 19/18 Q1021

TAF (pilot weather forecast)

Closest forecast is Brisbane International Airport, 76.0 nm (140.7 km) SSE. Retrieved 2019/04/20 06:00 UTC (4 hours ago):

TAF YBBN 200501Z 2006/2112 13014KT 9999 -SHRA SCT020 BKN040 FM201200 16010KT 9999 -SHRA SCT015 BKN025 BKN040 FM202300 13014KT 9999 SCT025 SCT040 INTER 2006/2018 3000 SHRA BKN012